createdAt,value
2022-10-17T00:00:00.480Z,87.53
2022-10-17T00:01:00.488Z,87.53
2022-10-17T00:02:00.503Z,87.53
2022-10-17T00:03:00.486Z,86.15
2022-10-17T00:04:00.393Z,86.15
2022-10-17T00:05:00.329Z,86.15
2022-10-17T00:06:04.279Z,86.15
2022-10-17T00:07:00.363Z,86.15
2022-10-17T00:08:00.357Z,86.46
2022-10-17T00:09:00.475Z,86.46
2022-10-17T00:10:00.337Z,86.46
2022-10-17T00:11:02.397Z,86.46
2022-10-17T00:12:00.310Z,86.46
2022-10-17T00:13:00.421Z,86.78
2022-10-17T00:14:00.315Z,86.78
2022-10-17T00:15:01.472Z,86.78
2022-10-17T00:16:00.654Z,86.78
2022-10-17T00:17:00.363Z,86.78
2022-10-17T00:18:00.732Z,86.62
2022-10-17T00:19:00.294Z,86.62
2022-10-17T00:20:00.364Z,86.62
2022-10-17T00:21:00.524Z,86.62
2022-10-17T00:22:00.341Z,86.62
2022-10-17T00:23:00.324Z,86.16
2022-10-17T00:24:00.614Z,86.16
2022-10-17T00:25:00.329Z,86.16
2022-10-17T00:26:01.172Z,86.16
2022-10-17T00:27:00.331Z,86.16
2022-10-17T00:28:00.326Z,86.84
2022-10-17T00:29:00.393Z,86.84
2022-10-17T00:30:00.374Z,86.84
2022-10-17T00:31:01.853Z,86.84
2022-10-17T00:32:00.426Z,86.84
2022-10-17T00:33:00.356Z,86.12
2022-10-17T00:34:00.462Z,86.12
2022-10-17T00:35:00.458Z,86.12
2022-10-17T00:36:10.226Z,86.12
2022-10-17T00:37:00.332Z,86.12
2022-10-17T00:38:00.423Z,85.92
2022-10-17T00:39:00.309Z,85.92
2022-10-17T00:40:00.563Z,85.92
2022-10-17T00:41:00.408Z,85.92
2022-10-17T00:42:00.410Z,85.92
2022-10-17T00:43:00.372Z,85.77
2022-10-17T00:44:03.246Z,85.77
2022-10-17T00:45:05.648Z,85.77
2022-10-17T00:46:00.324Z,85.77
2022-10-17T00:47:02.686Z,85.77
2022-10-17T00:48:03.327Z,85.69
2022-10-17T00:49:03.885Z,85.69
2022-10-17T00:51:00.327Z,85.69
2022-10-17T00:52:02.218Z,85.69
2022-10-17T00:53:01.772Z,85.70
2022-10-17T00:54:01.765Z,85.70
2022-10-17T00:55:04.968Z,85.70
2022-10-17T00:56:00.472Z,85.70
2022-10-17T00:57:00.877Z,85.70
2022-10-17T00:58:01.903Z,86.57
2022-10-17T00:59:00.998Z,86.57
2022-10-17T01:00:01.784Z,86.57
2022-10-17T01:01:00.931Z,86.57
2022-10-17T01:02:02.435Z,86.57
2022-10-17T01:03:00.484Z,85.81
2022-10-17T01:04:00.531Z,85.81
2022-10-17T01:05:00.853Z,85.81
2022-10-17T01:06:00.387Z,85.81
2022-10-17T01:07:00.380Z,85.81
2022-10-17T01:08:00.787Z,85.87
2022-10-17T01:09:00.424Z,85.87
2022-10-17T01:10:00.514Z,85.87
2022-10-17T01:11:10.225Z,85.87
2022-10-17T01:12:07.737Z,85.87
2022-10-17T01:13:09.430Z,85.69
2022-10-17T01:14:08.068Z,85.69
2022-10-17T01:15:09.653Z,85.69
2022-10-17T01:16:01.320Z,85.69
2022-10-17T01:17:06.185Z,85.69
2022-10-17T01:18:10.224Z,85.44
2022-10-17T01:19:08.608Z,85.44
2022-10-17T01:20:10.201Z,85.44
2022-10-17T01:21:10.196Z,85.44
2022-10-17T01:22:10.215Z,85.16
2022-10-17T01:23:03.558Z,85.16
2022-10-17T01:24:01.314Z,85.16
2022-10-17T01:25:03.642Z,85.16
2022-10-17T01:26:10.229Z,85.16
2022-10-17T01:27:10.234Z,85.92
2022-10-17T01:28:10.204Z,85.92
2022-10-17T01:29:10.229Z,85.92
2022-10-17T01:30:10.234Z,85.92
2022-10-17T01:31:10.208Z,85.92
2022-10-17T01:32:03.247Z,85.92
2022-10-17T01:33:10.255Z,85.78
2022-10-17T01:34:10.212Z,85.78
2022-10-17T01:35:09.288Z,85.78
2022-10-17T01:36:06.065Z,85.78
2022-10-17T01:37:03.344Z,85.78
2022-10-17T01:38:06.060Z,85.98
2022-10-17T01:39:05.408Z,85.98
2022-10-17T01:40:08.997Z,85.98
2022-10-17T01:41:10.218Z,85.98
2022-10-17T01:42:01.781Z,85.98
2022-10-17T01:43:01.325Z,86.28
2022-10-17T01:44:01.329Z,86.28
2022-10-17T01:45:01.305Z,86.28
2022-10-17T01:46:01.945Z,86.28
2022-10-17T01:47:10.007Z,86.19
2022-10-17T01:48:04.423Z,86.19
2022-10-17T01:49:01.763Z,86.19
2022-10-17T01:50:06.712Z,86.19
2022-10-17T01:51:04.992Z,86.19
2022-10-17T01:52:04.180Z,86.19
2022-10-17T01:53:02.934Z,86.25
2022-10-17T01:54:03.784Z,86.25
2022-10-17T01:55:03.461Z,86.25
2022-10-17T01:56:02.189Z,86.25
2022-10-17T01:57:03.159Z,86.25
2022-10-17T01:58:03.451Z,86.41
2022-10-17T01:59:04.009Z,86.41
2022-10-17T02:00:01.780Z,86.41
2022-10-17T02:01:01.909Z,86.41
2022-10-17T02:02:01.221Z,86.41
2022-10-17T02:03:03.113Z,86.15
2022-10-17T02:04:01.724Z,86.15
2022-10-17T02:06:00.745Z,86.15
2022-10-17T02:07:10.211Z,85.52
2022-10-17T02:08:00.337Z,85.52
2022-10-17T02:09:00.338Z,85.52
2022-10-17T02:10:00.624Z,85.52
2022-10-17T02:11:03.411Z,85.52
2022-10-17T02:12:03.562Z,85.52
2022-10-17T02:13:05.840Z,85.31
2022-10-17T02:14:10.204Z,85.31
2022-10-17T02:15:10.211Z,85.31
2022-10-17T02:16:10.206Z,85.31
2022-10-17T02:17:08.149Z,85.31
2022-10-17T02:18:00.316Z,85.22
2022-10-17T02:19:10.207Z,85.22
2022-10-17T02:20:00.290Z,85.22
2022-10-17T02:21:05.928Z,85.22
2022-10-17T02:22:09.794Z,84.90
2022-10-17T02:23:10.257Z,84.90
2022-10-17T02:24:06.728Z,84.90
2022-10-17T02:25:06.818Z,84.90
2022-10-17T02:26:10.206Z,84.90
2022-10-17T02:27:03.560Z,84.90
2022-10-17T02:28:07.679Z,85.17
2022-10-17T02:29:10.201Z,85.17
2022-10-17T02:30:05.209Z,85.17
2022-10-17T02:31:03.350Z,85.17
2022-10-17T02:32:10.250Z,84.33
2022-10-17T02:33:00.304Z,84.33
2022-10-17T02:34:02.503Z,84.33
2022-10-17T02:35:01.750Z,84.33
2022-10-17T02:36:04.135Z,84.33
2022-10-17T02:37:01.950Z,84.33
2022-10-17T02:38:02.517Z,83.95
2022-10-17T02:39:01.869Z,83.95
2022-10-17T02:40:01.080Z,83.95
2022-10-17T02:41:00.741Z,83.95
2022-10-17T02:42:02.720Z,83.95
2022-10-17T02:43:00.300Z,83.50
2022-10-17T02:44:02.489Z,83.50
2022-10-17T02:45:01.404Z,83.50
2022-10-17T02:46:00.437Z,83.50
2022-10-17T02:47:02.725Z,83.50
2022-10-17T02:48:10.206Z,83.35
2022-10-17T02:49:10.203Z,83.35
2022-10-17T02:50:00.768Z,83.35
2022-10-17T02:51:04.309Z,83.35
2022-10-17T02:52:04.252Z,83.35
2022-10-17T02:53:03.893Z,82.95
2022-10-17T02:54:05.892Z,82.95
2022-10-17T02:55:05.264Z,82.95
2022-10-17T02:56:05.109Z,82.95
2022-10-17T02:57:05.797Z,82.95
2022-10-17T02:58:05.162Z,83.06
2022-10-17T02:59:01.807Z,83.06
2022-10-17T03:00:01.144Z,83.06
2022-10-17T03:01:00.702Z,83.06
2022-10-17T03:02:02.612Z,83.06
2022-10-17T03:03:00.340Z,82.94
2022-10-17T03:04:05.376Z,82.94
2022-10-17T03:05:00.320Z,82.94
2022-10-17T03:06:00.386Z,82.94
2022-10-17T03:07:00.344Z,82.94
2022-10-17T03:08:00.301Z,82.70
2022-10-17T03:09:00.344Z,82.70
2022-10-17T03:10:00.416Z,82.70
2022-10-17T03:11:00.517Z,82.70
2022-10-17T03:12:00.425Z,82.70
2022-10-17T03:13:00.692Z,82.60
2022-10-17T03:14:00.463Z,82.60
2022-10-17T03:15:00.618Z,82.60
2022-10-17T03:16:00.323Z,82.60
2022-10-17T03:17:00.327Z,82.60
2022-10-17T03:18:00.335Z,82.69
2022-10-17T03:19:00.456Z,82.69
2022-10-17T03:20:00.685Z,82.69
2022-10-17T03:21:00.358Z,82.69
2022-10-17T03:22:00.316Z,82.69
2022-10-17T03:23:00.411Z,82.48
2022-10-17T03:24:00.325Z,82.48
2022-10-17T03:25:00.369Z,82.48
2022-10-17T03:26:03.101Z,82.48
2022-10-17T03:27:00.365Z,82.48
2022-10-17T03:28:00.397Z,83.49
2022-10-17T03:29:00.422Z,83.49
2022-10-17T03:30:00.336Z,83.49
2022-10-17T03:31:05.797Z,83.49
2022-10-17T03:32:00.363Z,83.49
2022-10-17T03:33:00.321Z,82.84
2022-10-17T03:34:01.416Z,82.84
2022-10-17T03:35:00.458Z,82.84
2022-10-17T03:36:03.885Z,82.84
2022-10-17T03:37:00.403Z,82.84
2022-10-17T03:38:00.327Z,82.92
2022-10-17T03:39:00.406Z,82.92
2022-10-17T03:40:00.345Z,82.92
2022-10-17T03:41:00.641Z,82.92
2022-10-17T03:42:00.360Z,82.92
2022-10-17T03:43:00.383Z,82.86
2022-10-17T03:44:00.367Z,82.86
2022-10-17T03:45:00.429Z,82.86
2022-10-17T03:46:00.582Z,82.86
2022-10-17T03:47:00.451Z,82.86
2022-10-17T03:48:00.367Z,83.01
2022-10-17T03:49:00.339Z,83.01
2022-10-17T03:50:00.399Z,83.01
2022-10-17T03:51:03.318Z,83.01
2022-10-17T03:52:00.608Z,83.01
2022-10-17T03:53:00.333Z,83.00
2022-10-17T03:54:00.555Z,83.00
2022-10-17T03:55:00.352Z,83.00
2022-10-17T03:56:10.223Z,83.00
2022-10-17T03:57:00.338Z,83.00
2022-10-17T03:58:00.408Z,83.59
2022-10-17T03:59:00.313Z,83.59
2022-10-17T04:00:00.416Z,83.59
2022-10-17T04:01:04.450Z,83.59
2022-10-17T04:02:00.338Z,83.59
2022-10-17T04:03:00.438Z,83.24
2022-10-17T04:04:00.335Z,83.24
2022-10-17T04:05:00.660Z,83.24
2022-10-17T04:06:01.377Z,83.24
2022-10-17T04:07:00.506Z,83.24
2022-10-17T04:08:03.871Z,82.86
2022-10-17T04:09:00.418Z,82.86
2022-10-17T04:10:00.328Z,82.86
2022-10-17T04:11:01.324Z,82.86
2022-10-17T04:12:00.343Z,82.86
2022-10-17T04:13:00.364Z,83.09
2022-10-17T04:14:00.459Z,83.09
2022-10-17T04:15:00.340Z,83.09
2022-10-17T04:16:02.554Z,83.09
2022-10-17T04:17:00.328Z,83.09
2022-10-17T04:18:00.432Z,82.95
2022-10-17T04:19:00.356Z,82.95
2022-10-17T04:20:00.431Z,82.95
2022-10-17T04:21:00.979Z,82.95
2022-10-17T04:22:00.429Z,82.95
2022-10-17T04:23:00.332Z,83.12
2022-10-17T04:24:00.347Z,83.12
2022-10-17T04:25:00.391Z,83.12
2022-10-17T04:26:00.801Z,83.12
2022-10-17T04:27:00.361Z,83.12
2022-10-17T04:28:00.352Z,83.70
2022-10-17T04:29:00.362Z,83.70
2022-10-17T04:30:00.338Z,83.70
2022-10-17T04:31:01.266Z,83.70
2022-10-17T04:32:00.334Z,83.70
2022-10-17T04:33:00.337Z,83.41
2022-10-17T04:34:00.351Z,83.41
2022-10-17T04:35:00.352Z,83.41
2022-10-17T04:36:01.545Z,83.41
2022-10-17T04:37:00.566Z,83.41
2022-10-17T04:38:00.347Z,83.39
2022-10-17T04:39:00.413Z,83.39
2022-10-17T04:40:00.421Z,83.39
2022-10-17T04:41:00.988Z,83.39
2022-10-17T04:42:00.336Z,83.39
2022-10-17T04:43:00.323Z,83.15
2022-10-17T04:44:00.340Z,83.15
2022-10-17T04:45:00.367Z,83.15
2022-10-17T04:46:01.277Z,83.15
2022-10-17T04:47:00.513Z,83.15
2022-10-17T04:48:00.370Z,83.26
2022-10-17T04:49:00.432Z,83.26
2022-10-17T04:50:00.393Z,83.26
2022-10-17T04:51:02.704Z,83.26
2022-10-17T04:52:00.321Z,83.26
2022-10-17T04:53:00.338Z,82.83
2022-10-17T04:54:00.352Z,82.83
2022-10-17T04:55:00.352Z,82.83
2022-10-17T04:56:00.679Z,82.83
2022-10-17T04:57:00.320Z,82.83
2022-10-17T04:58:00.336Z,83.57
2022-10-17T04:59:00.336Z,83.57
2022-10-17T05:00:00.567Z,83.57
2022-10-17T05:01:03.710Z,83.57
2022-10-17T05:02:00.305Z,83.57
2022-10-17T05:03:00.344Z,82.97
2022-10-17T05:04:00.343Z,82.97
2022-10-17T05:05:00.304Z,82.97
2022-10-17T05:06:08.741Z,82.97
2022-10-17T05:07:00.612Z,82.97
2022-10-17T05:08:00.386Z,82.88
2022-10-17T05:09:00.410Z,82.88
2022-10-17T05:10:00.335Z,82.88
2022-10-17T05:12:00.403Z,82.88
2022-10-17T05:13:00.348Z,83.02
2022-10-17T05:14:01.125Z,83.02
2022-10-17T05:15:00.338Z,83.02
2022-10-17T05:16:00.497Z,83.02
2022-10-17T05:17:00.362Z,83.02
2022-10-17T05:18:00.577Z,82.98
2022-10-17T05:19:00.670Z,82.98
2022-10-17T05:20:00.315Z,82.98
2022-10-17T05:21:01.916Z,82.98
2022-10-17T05:22:00.338Z,82.98
2022-10-17T05:23:00.541Z,83.23
2022-10-17T05:24:00.353Z,83.23
2022-10-17T05:25:00.359Z,83.23
2022-10-17T05:26:00.353Z,83.23
2022-10-17T05:27:00.389Z,83.23
2022-10-17T05:28:00.419Z,83.45
2022-10-17T05:29:01.039Z,83.45
2022-10-17T05:30:00.418Z,83.45
2022-10-17T05:31:02.593Z,83.45
2022-10-17T05:33:00.371Z,83.37
2022-10-17T05:34:01.001Z,83.37
2022-10-17T05:35:00.405Z,83.37
2022-10-17T05:36:00.686Z,83.37
2022-10-17T05:37:00.365Z,83.37
2022-10-17T05:38:00.406Z,83.17
2022-10-17T05:39:00.413Z,83.17
2022-10-17T05:40:00.587Z,83.17
2022-10-17T05:41:01.932Z,83.17
2022-10-17T05:42:00.356Z,83.17
2022-10-17T05:43:00.356Z,82.72
2022-10-17T05:44:03.204Z,82.72
2022-10-17T05:45:00.352Z,82.72
2022-10-17T05:46:07.418Z,82.72
2022-10-17T05:47:00.352Z,82.72
2022-10-17T05:48:00.351Z,82.72
2022-10-17T05:49:00.353Z,82.72
2022-10-17T05:50:00.339Z,82.72
2022-10-17T05:51:01.419Z,82.72
2022-10-17T05:52:00.341Z,82.72
2022-10-17T05:53:00.408Z,82.08
2022-10-17T05:54:00.589Z,82.08
2022-10-17T05:55:00.401Z,82.08
2022-10-17T05:56:01.638Z,82.08
2022-10-17T05:57:00.379Z,82.08
2022-10-17T05:58:01.067Z,82.15
2022-10-17T05:59:01.147Z,82.15
2022-10-17T06:00:00.385Z,82.15
2022-10-17T06:01:01.801Z,82.15
2022-10-17T06:02:00.409Z,82.15
2022-10-17T06:03:00.407Z,81.73
2022-10-17T06:04:00.324Z,81.73
2022-10-17T06:05:00.334Z,81.73
2022-10-17T06:06:04.202Z,81.73
2022-10-17T06:07:00.342Z,81.73
2022-10-17T06:08:01.999Z,81.60
2022-10-17T06:09:00.384Z,81.60
2022-10-17T06:10:00.426Z,81.60
2022-10-17T06:11:00.537Z,81.60
2022-10-17T06:12:00.353Z,81.60
2022-10-17T06:13:00.367Z,81.59
2022-10-17T06:14:00.453Z,81.59
2022-10-17T06:15:00.332Z,81.59
2022-10-17T06:16:00.671Z,81.59
2022-10-17T06:17:00.339Z,81.59
2022-10-17T06:18:00.332Z,81.67
2022-10-17T06:19:00.351Z,81.67
2022-10-17T06:20:00.687Z,81.67
2022-10-17T06:21:01.134Z,81.67
2022-10-17T06:22:00.333Z,81.67
2022-10-17T06:23:00.333Z,81.72
2022-10-17T06:24:00.325Z,81.72
2022-10-17T06:25:00.334Z,81.72
2022-10-17T06:26:00.856Z,81.72
2022-10-17T06:27:00.405Z,81.72
2022-10-17T06:28:01.293Z,82.56
2022-10-17T06:29:00.532Z,82.56
2022-10-17T06:30:00.393Z,82.56
2022-10-17T06:31:04.808Z,82.56
2022-10-17T06:32:00.339Z,82.56
2022-10-17T06:33:00.324Z,82.32
2022-10-17T06:34:00.349Z,82.32
2022-10-17T06:35:00.411Z,82.32
2022-10-17T06:36:00.712Z,82.32
2022-10-17T06:37:00.385Z,82.32
2022-10-17T06:38:00.409Z,82.31
2022-10-17T06:39:00.336Z,82.31
2022-10-17T06:40:00.377Z,82.31
2022-10-17T06:41:02.472Z,82.31
2022-10-17T06:42:00.433Z,82.31
2022-10-17T06:43:00.496Z,82.52
2022-10-17T06:44:00.344Z,82.52
2022-10-17T06:45:00.340Z,82.52
2022-10-17T06:46:00.334Z,82.52
2022-10-17T06:47:00.436Z,82.52
2022-10-17T06:48:01.157Z,82.69
2022-10-17T06:49:00.331Z,82.69
2022-10-17T06:50:00.329Z,82.69
2022-10-17T06:51:01.027Z,82.69
2022-10-17T06:52:00.340Z,82.69
2022-10-17T06:53:00.305Z,82.91
2022-10-17T06:54:00.328Z,82.91
2022-10-17T06:55:00.523Z,82.91
2022-10-17T06:56:00.927Z,82.91
2022-10-17T06:57:00.376Z,82.91
2022-10-17T06:58:00.331Z,83.21
2022-10-17T06:59:00.359Z,83.21
2022-10-17T07:00:00.458Z,83.21
2022-10-17T07:01:01.462Z,83.21
2022-10-17T07:02:01.052Z,83.21
2022-10-17T07:03:00.324Z,82.83
2022-10-17T07:04:00.347Z,82.83
2022-10-17T07:05:00.341Z,82.83
2022-10-17T07:06:00.552Z,82.83
2022-10-17T07:07:00.395Z,82.83
2022-10-17T07:08:00.382Z,83.11
2022-10-17T07:09:00.327Z,83.11
2022-10-17T07:10:00.419Z,83.11
2022-10-17T07:11:08.105Z,83.11
2022-10-17T07:12:00.322Z,83.11
2022-10-17T07:13:00.314Z,83.07
2022-10-17T07:14:00.547Z,83.07
2022-10-17T07:15:00.457Z,83.07
2022-10-17T07:16:00.352Z,83.07
2022-10-17T07:17:00.556Z,83.07
2022-10-17T07:18:00.411Z,83.07
2022-10-17T07:19:00.432Z,83.07
2022-10-17T07:20:00.344Z,83.07
2022-10-17T07:21:00.330Z,83.07
2022-10-17T07:22:00.313Z,83.07
2022-10-17T07:23:00.324Z,82.63
2022-10-17T07:24:00.337Z,82.63
2022-10-17T07:25:00.331Z,82.63
2022-10-17T07:26:00.694Z,82.63
2022-10-17T07:27:00.489Z,82.63
2022-10-17T07:28:00.322Z,83.05
2022-10-17T07:29:00.443Z,83.05
2022-10-17T07:30:00.372Z,83.05
2022-10-17T07:31:04.659Z,83.05
2022-10-17T07:32:00.324Z,83.05
2022-10-17T07:33:00.376Z,82.51
2022-10-17T07:34:00.324Z,82.51
2022-10-17T07:35:00.360Z,82.51
2022-10-17T07:36:01.006Z,82.51
2022-10-17T07:37:00.381Z,82.51
2022-10-17T07:38:00.320Z,82.19
2022-10-17T07:39:00.309Z,82.19
2022-10-17T07:40:00.716Z,82.19
2022-10-17T07:41:01.250Z,82.19
2022-10-17T07:42:00.353Z,82.19
2022-10-17T07:43:00.369Z,81.99
2022-10-17T07:44:00.312Z,81.99
2022-10-17T07:45:00.451Z,81.99
2022-10-17T07:46:00.753Z,81.99
2022-10-17T07:47:00.358Z,81.99
2022-10-17T07:48:00.300Z,81.72
2022-10-17T07:49:00.350Z,81.72
2022-10-17T07:50:00.979Z,81.72
2022-10-17T07:51:02.630Z,81.72
2022-10-17T07:52:00.348Z,81.72
2022-10-17T07:53:00.343Z,81.40
2022-10-17T07:54:00.324Z,81.40
2022-10-17T07:55:00.350Z,81.40
2022-10-17T07:56:02.454Z,81.40
2022-10-17T07:57:00.409Z,81.40
2022-10-17T07:58:00.339Z,81.55
2022-10-17T07:59:02.638Z,81.55
2022-10-17T08:00:00.397Z,81.55
2022-10-17T08:02:00.398Z,81.55
2022-10-17T08:03:00.404Z,80.77
2022-10-17T08:04:00.358Z,80.77
2022-10-17T08:05:00.331Z,80.77
2022-10-17T08:06:01.311Z,80.77
2022-10-17T08:07:18.306Z,80.77
2022-10-17T08:08:00.481Z,80.53
2022-10-17T08:09:00.349Z,80.53
2022-10-17T08:10:00.420Z,80.53
2022-10-17T08:11:01.609Z,80.53
2022-10-17T08:12:00.330Z,80.53
2022-10-17T08:13:00.741Z,80.15
2022-10-17T08:14:00.313Z,80.15
2022-10-17T08:15:00.479Z,80.15
2022-10-17T08:16:01.161Z,80.15
2022-10-17T08:17:00.340Z,80.15
2022-10-17T08:18:00.317Z,79.92
2022-10-17T08:19:00.673Z,79.92
2022-10-17T08:20:00.395Z,79.92
2022-10-17T08:21:01.302Z,79.92
2022-10-17T08:22:00.345Z,79.92
2022-10-17T08:23:00.322Z,79.71
2022-10-17T08:24:00.355Z,79.71
2022-10-17T08:25:00.362Z,79.71
2022-10-17T08:26:01.314Z,79.71
2022-10-17T08:27:00.463Z,79.71
2022-10-17T08:28:00.407Z,79.68
2022-10-17T08:29:00.416Z,79.68
2022-10-17T08:30:00.659Z,79.68
2022-10-17T08:31:02.434Z,79.68
2022-10-17T08:32:02.356Z,79.68
2022-10-17T08:33:00.325Z,79.42
2022-10-17T08:34:00.329Z,79.42
2022-10-17T08:35:00.364Z,79.42
2022-10-17T08:36:01.059Z,79.42
2022-10-17T08:37:00.449Z,79.42
2022-10-17T08:38:00.361Z,79.18
2022-10-17T08:39:00.320Z,79.18
2022-10-17T08:40:00.342Z,79.18
2022-10-17T08:41:01.626Z,79.18
2022-10-17T08:42:07.864Z,79.18
2022-10-17T08:43:10.246Z,79.00
2022-10-17T08:44:00.334Z,79.00
2022-10-17T08:45:10.265Z,79.00
2022-10-17T08:46:01.807Z,79.00
2022-10-17T08:47:02.807Z,79.00
2022-10-17T08:48:01.704Z,78.70
2022-10-17T08:49:01.656Z,78.70
2022-10-17T08:50:01.699Z,78.70
2022-10-17T08:51:06.292Z,78.70
2022-10-17T08:52:04.468Z,78.70
2022-10-17T08:53:10.263Z,78.53
2022-10-17T08:54:10.290Z,78.53
2022-10-17T08:55:00.626Z,78.53
2022-10-17T08:56:04.718Z,78.53
2022-10-17T08:57:00.497Z,78.53
2022-10-17T08:58:00.641Z,78.34
2022-10-17T08:59:00.386Z,78.34
2022-10-17T09:00:00.591Z,78.34
2022-10-17T09:01:01.641Z,78.34
2022-10-17T09:02:02.980Z,78.34
2022-10-17T09:03:08.727Z,78.21
2022-10-17T09:04:01.390Z,78.21
2022-10-17T09:05:03.682Z,78.21
2022-10-17T09:06:03.671Z,78.21
2022-10-17T09:07:10.228Z,78.21
2022-10-17T09:08:07.969Z,77.82
2022-10-17T09:09:01.378Z,77.82
2022-10-17T09:10:09.349Z,77.82
2022-10-17T09:11:04.763Z,77.82
2022-10-17T09:12:10.198Z,77.82
2022-10-17T09:13:08.007Z,77.52
2022-10-17T09:14:07.893Z,77.52
2022-10-17T09:15:01.376Z,77.52
2022-10-17T09:16:01.430Z,77.52
2022-10-17T09:17:08.996Z,77.52
2022-10-17T09:18:06.624Z,77.39
2022-10-17T09:19:03.286Z,77.39
2022-10-17T09:20:08.938Z,77.39
2022-10-17T09:21:10.187Z,77.39
2022-10-17T09:22:05.354Z,77.39
2022-10-17T09:23:02.842Z,77.03
2022-10-17T09:24:09.710Z,77.03
2022-10-17T09:25:02.311Z,77.03
2022-10-17T09:26:00.864Z,77.03
2022-10-17T09:27:01.177Z,77.03
2022-10-17T09:28:09.582Z,76.80
2022-10-17T09:29:00.620Z,76.80
2022-10-17T09:30:21.371Z,76.80
2022-10-17T09:31:10.202Z,76.80
2022-10-17T09:32:02.404Z,76.80
2022-10-17T09:33:05.292Z,76.47
2022-10-17T09:34:01.256Z,76.47
2022-10-17T09:35:00.416Z,76.47
2022-10-17T09:36:01.479Z,76.47
2022-10-17T09:37:01.288Z,76.47
2022-10-17T09:38:00.356Z,75.92
2022-10-17T09:39:04.469Z,75.92
2022-10-17T09:40:00.414Z,75.92
2022-10-17T09:41:01.291Z,75.92
2022-10-17T09:42:00.671Z,75.92
2022-10-17T09:43:02.723Z,75.21
2022-10-17T09:44:10.254Z,75.21
2022-10-17T09:45:00.373Z,75.21
2022-10-17T09:46:00.366Z,75.21
2022-10-17T09:47:03.624Z,75.21
2022-10-17T09:48:10.293Z,74.82
2022-10-17T09:50:00.942Z,74.82
2022-10-17T09:51:14.858Z,74.82
2022-10-17T09:52:02.392Z,74.82
2022-10-17T09:53:08.083Z,74.33
2022-10-17T09:54:02.162Z,74.33
2022-10-17T09:55:00.340Z,74.33
2022-10-17T09:56:01.684Z,74.33
2022-10-17T09:57:01.848Z,74.33
2022-10-17T09:58:01.649Z,73.89
2022-10-17T09:59:00.409Z,73.89
2022-10-17T10:00:03.725Z,73.89
2022-10-17T10:01:10.331Z,73.89
2022-10-17T10:02:10.297Z,73.89
2022-10-17T10:03:10.255Z,73.25
2022-10-17T10:04:10.264Z,73.25
2022-10-17T10:05:05.621Z,73.25
2022-10-17T10:06:00.345Z,73.25
2022-10-17T10:07:01.909Z,73.25
2022-10-17T10:08:01.847Z,71.41
2022-10-17T10:09:00.521Z,71.41
2022-10-17T10:10:01.571Z,71.41
2022-10-17T10:11:02.257Z,71.41
2022-10-17T10:12:04.248Z,71.41
2022-10-17T10:13:02.356Z,71.19
2022-10-17T10:14:09.839Z,71.19
2022-10-17T10:15:00.684Z,71.19
2022-10-17T10:16:10.288Z,71.19
2022-10-17T10:17:01.695Z,71.19
2022-10-17T10:18:00.757Z,69.96
2022-10-17T10:19:00.408Z,69.96
2022-10-17T10:20:00.892Z,69.96
2022-10-17T10:21:03.156Z,69.96
2022-10-17T10:22:02.945Z,69.96
2022-10-17T10:23:05.492Z,70.41
2022-10-17T10:24:03.535Z,70.41
2022-10-17T10:25:06.102Z,70.41
2022-10-17T10:26:01.827Z,70.41
2022-10-17T10:27:02.647Z,70.41
2022-10-17T10:28:01.462Z,69.18
2022-10-17T10:29:04.325Z,69.18
2022-10-17T10:30:00.348Z,69.18
2022-10-17T10:31:05.548Z,69.18
2022-10-17T10:32:10.255Z,69.18
2022-10-17T10:33:00.476Z,68.64
2022-10-17T10:34:02.081Z,68.64
2022-10-17T10:35:04.968Z,68.64
2022-10-17T10:36:02.384Z,68.64
2022-10-17T10:37:00.372Z,68.64
2022-10-17T10:38:01.941Z,67.79
2022-10-17T10:39:03.804Z,67.79
2022-10-17T10:40:01.874Z,67.79
2022-10-17T10:41:01.760Z,67.79
2022-10-17T10:42:01.835Z,67.79
2022-10-17T10:43:05.217Z,67.32
2022-10-17T10:44:00.369Z,67.32
2022-10-17T10:45:03.606Z,67.32
2022-10-17T10:46:01.962Z,67.32
2022-10-17T10:47:10.274Z,67.32
2022-10-17T10:48:01.882Z,67.28
2022-10-17T10:49:00.765Z,67.28
2022-10-17T10:50:10.334Z,67.28
2022-10-17T10:51:04.620Z,67.28
2022-10-17T10:52:01.645Z,67.28
2022-10-17T10:53:03.573Z,65.85
2022-10-17T10:54:04.411Z,65.85
2022-10-17T10:55:04.090Z,65.85
2022-10-17T10:56:10.290Z,65.85
2022-10-17T10:57:02.972Z,65.85
2022-10-17T10:58:10.284Z,66.22
2022-10-17T10:59:01.317Z,66.22
2022-10-17T11:00:03.608Z,66.22
2022-10-17T11:01:03.402Z,66.22
2022-10-17T11:02:08.291Z,66.22
2022-10-17T11:03:03.974Z,65.93
2022-10-17T11:04:00.382Z,65.93
2022-10-17T11:05:10.333Z,65.93
2022-10-17T11:06:05.221Z,65.93
2022-10-17T11:07:05.152Z,65.93
2022-10-17T11:08:06.326Z,65.46
2022-10-17T11:09:10.249Z,65.46
2022-10-17T11:10:00.334Z,65.46
2022-10-17T11:11:10.999Z,65.46
2022-10-17T11:12:04.399Z,65.46
2022-10-17T11:13:00.322Z,64.76
2022-10-17T11:14:13.010Z,64.76
2022-10-17T11:15:10.259Z,64.76
2022-10-17T11:16:06.401Z,64.76
2022-10-17T11:17:00.287Z,64.76
2022-10-17T11:18:05.705Z,63.84
2022-10-17T11:19:10.295Z,63.84
2022-10-17T11:20:07.802Z,63.84
2022-10-17T11:21:03.666Z,63.84
2022-10-17T11:22:00.310Z,63.84
2022-10-17T11:23:10.294Z,64.24
2022-10-17T11:24:10.267Z,64.24
2022-10-17T11:25:04.342Z,64.24
2022-10-17T11:26:03.106Z,64.24
2022-10-17T11:27:02.292Z,64.24
2022-10-17T11:28:04.843Z,62.31
2022-10-17T11:29:02.747Z,62.31
2022-10-17T11:30:00.616Z,62.31
2022-10-17T11:31:07.231Z,62.31
2022-10-17T11:32:10.186Z,62.31
2022-10-17T11:33:02.456Z,62.10
2022-10-17T11:34:03.571Z,62.10
2022-10-17T11:35:03.862Z,62.10
2022-10-17T11:36:03.492Z,62.10
2022-10-17T11:37:10.240Z,62.10
2022-10-17T11:38:00.290Z,61.45
2022-10-17T11:39:04.232Z,61.45
2022-10-17T11:40:03.380Z,61.45
2022-10-17T11:41:01.604Z,61.45
2022-10-17T11:42:04.345Z,61.45
2022-10-17T11:43:09.316Z,62.79
2022-10-17T11:44:06.541Z,62.79
2022-10-17T11:45:10.253Z,62.79
2022-10-17T11:46:03.457Z,62.79
2022-10-17T11:47:05.476Z,62.79
2022-10-17T11:48:04.234Z,62.44
2022-10-17T11:49:10.237Z,62.44
2022-10-17T11:52:10.060Z,62.44
2022-10-17T11:53:00.606Z,60.94
2022-10-17T11:54:10.258Z,60.94
2022-10-17T11:55:02.505Z,60.94
2022-10-17T11:56:01.046Z,60.94
2022-10-17T11:57:00.356Z,60.94
2022-10-17T11:58:10.325Z,59.40
2022-10-17T11:59:07.639Z,59.40
2022-10-17T12:00:03.609Z,59.40
2022-10-17T12:01:07.704Z,59.40
2022-10-17T12:02:03.894Z,59.40
2022-10-17T12:03:10.206Z,58.48
2022-10-17T12:04:10.311Z,58.48
2022-10-17T12:05:10.231Z,58.48
2022-10-17T12:06:07.299Z,58.48
2022-10-17T12:07:03.571Z,58.48
2022-10-17T12:08:10.231Z,58.24
2022-10-17T12:09:11.058Z,58.24
2022-10-17T12:10:10.263Z,58.24
2022-10-17T12:11:07.783Z,58.24
2022-10-17T12:12:01.353Z,58.24
2022-10-17T12:13:10.197Z,57.37
2022-10-17T12:14:04.952Z,57.37
2022-10-17T12:15:10.331Z,57.37
2022-10-17T12:16:12.584Z,57.37
2022-10-17T12:17:02.037Z,57.37
2022-10-17T12:18:01.421Z,58.49
2022-10-17T12:19:00.315Z,58.49
2022-10-17T12:20:10.199Z,58.49
2022-10-17T12:21:00.407Z,58.49
2022-10-17T12:22:02.918Z,58.49
2022-10-17T12:23:10.203Z,57.30
2022-10-17T12:24:00.394Z,57.30
2022-10-17T12:25:01.166Z,57.30
2022-10-17T12:26:03.413Z,57.30
2022-10-17T12:27:10.355Z,57.30
2022-10-17T12:28:10.205Z,56.10
2022-10-17T12:29:00.451Z,56.10
2022-10-17T12:30:01.919Z,56.10
2022-10-17T12:31:03.582Z,56.10
2022-10-17T12:32:10.202Z,56.10
2022-10-17T12:33:07.026Z,56.60
2022-10-17T12:34:01.372Z,56.60
2022-10-17T12:35:01.364Z,56.60
2022-10-17T12:36:10.223Z,56.60
2022-10-17T12:37:00.302Z,56.60
2022-10-17T12:38:02.846Z,55.35
2022-10-17T12:39:00.313Z,55.35
2022-10-17T12:40:00.346Z,55.35
2022-10-17T12:41:00.921Z,55.35
2022-10-17T12:42:01.266Z,55.35
2022-10-17T12:43:10.215Z,56.70
2022-10-17T12:44:00.458Z,56.70
2022-10-17T12:45:00.477Z,56.70
2022-10-17T12:46:02.869Z,56.70
2022-10-17T12:47:07.889Z,56.70
2022-10-17T12:48:00.314Z,55.08
2022-10-17T12:49:02.591Z,55.08
2022-10-17T12:50:00.319Z,55.08
2022-10-17T12:51:35.261Z,55.08
2022-10-17T12:52:10.189Z,55.08
2022-10-17T12:53:05.114Z,55.46
2022-10-17T12:54:00.422Z,55.46
2022-10-17T12:55:12.698Z,55.46
2022-10-17T12:56:00.396Z,55.46
2022-10-17T12:57:00.372Z,55.46
2022-10-17T12:58:02.816Z,54.77
2022-10-17T12:59:00.434Z,54.77
2022-10-17T13:00:01.698Z,54.77